sensor_id;sensor_type;location;lat;lon;timestamp;pressure;altitude;pressure_sealevel;temperature;humidity
49055;BME280;35405;52.344;14.530;2023-03-07T06:14:35;98654.94;;;-0.34;100.00
49055;BME280;35405;52.344;14.530;2023-03-07T06:17:00;98657.63;;;-0.39;100.00
49055;BME280;35405;52.344;14.530;2023-03-07T06:19:27;98660.31;;;-0.44;100.00
49055;BME280;35405;52.344;14.530;2023-03-07T06:21:52;98651.75;;;-0.52;100.00
49055;BME280;35405;52.344;14.530;2023-03-07T06:24:17;98653.09;;;-0.54;100.00
49055;BME280;35405;52.344;14.530;2023-03-07T06:26:43;98646.44;;;-0.57;100.00
49055;BME280;35405;52.344;14.530;2023-03-07T06:32:22;98644.31;;;-0.65;100.00
49055;BME280;35405;52.344;14.530;2023-03-07T06:34:50;98644.03;;;-0.63;100.00
49055;BME280;35405;52.344;14.530;2023-03-07T06:37:15;98659.78;;;-0.67;100.00
49055;BME280;35405;52.344;14.530;2023-03-07T06:43:03;98640.81;;;-0.60;100.00
49055;BME280;35405;52.344;14.530;2023-03-07T06:45:35;98647.53;;;-0.63;100.00
49055;BME280;35405;52.344;14.530;2023-03-07T06:48:22;98639.22;;;-0.66;100.00
49055;BME280;35405;52.344;14.530;2023-03-07T06:54:22;98633.09;;;-0.67;100.00
49055;BME280;35405;52.344;14.530;2023-03-07T06:56:47;98632.28;;;-0.67;100.00
49055;BME280;35405;52.344;14.530;2023-03-07T06:59:16;98633.38;;;-0.68;100.00
49055;BME280;35405;52.344;14.530;2023-03-07T07:01:47;98630.69;;;-0.63;100.00
49055;BME280;35405;52.344;14.530;2023-03-07T07:04:25;98630.44;;;-0.57;100.00
49055;BME280;35405;52.344;14.530;2023-03-07T07:06:53;98620.53;;;-0.56;100.00
49055;BME280;35405;52.344;14.530;2023-03-07T07:15:41;98607.69;;;-0.44;100.00
49055;BME280;35405;52.344;14.530;2023-03-07T07:18:06;98617.31;;;-0.38;100.00
49055;BME280;35405;52.344;14.530;2023-03-07T07:20:40;98603.94;;;-0.38;100.00
49055;BME280;35405;52.344;14.530;2023-03-07T07:23:05;98614.88;;;-0.39;100.00
49055;BME280;35405;52.344;14.530;2023-03-07T07:25:37;98612.22;;;-0.29;100.00
49055;BME280;35405;52.344;14.530;2023-03-07T07:28:16;98615.38;;;-0.22;100.00
49055;BME280;35405;52.344;14.530;2023-03-07T07:30:49;98598.81;;;-0.14;100.00
49055;BME280;35405;52.344;14.530;2023-03-07T07:33:14;98601.19;;;-0.12;100.00
49055;BME280;35405;52.344;14.530;2023-03-07T07:35:43;98592.63;;;-0.09;100.00
49055;BME280;35405;52.344;14.530;2023-03-07T07:38:08;98604.91;;;-0.03;100.00
49055;BME280;35405;52.344;14.530;2023-03-07T07:40:34;98598.75;;;0.02;100.00
49055;BME280;35405;52.344;14.530;2023-03-07T07:43:02;98607.78;;;0.11;100.00
49055;BME280;35405;52.344;14.530;2023-03-07T07:45:27;98597.03;;;0.21;100.00
49055;BME280;35405;52.344;14.530;2023-03-07T07:47:52;98591.91;;;0.30;100.00
49055;BME280;35405;52.344;14.530;2023-03-07T07:50:21;98602.88;;;0.33;100.00
49055;BME280;35405;52.344;14.530;2023-03-07T07:52:47;98602.34;;;0.31;100.00
49055;BME280;35405;52.344;14.530;2023-03-07T07:55:13;98602.59;;;0.35;100.00
49055;BME280;35405;52.344;14.530;2023-03-07T07:57:40;98601.78;;;0.39;100.00
49055;BME280;35405;52.344;14.530;2023-03-07T08:00:07;98584.91;;;0.44;100.00
49055;BME280;35405;52.344;14.530;2023-03-07T08:02:51;98587.25;;;0.51;100.00
49055;BME280;35405;52.344;14.530;2023-03-07T08:05:17;98597.38;;;0.59;100.00
49055;BME280;35405;52.344;14.530;2023-03-07T08:17:02;98590.84;;;1.09;100.00
49055;BME280;35405;52.344;14.530;2023-03-07T08:19:58;98585.56;;;0.99;100.00
49055;BME280;35405;52.344;14.530;2023-03-07T08:22:38;98591.69;;;-100.05;100.00
49055;BME280;35405;52.344;14.530;2023-03-07T08:28:24;98593.22;;;1.45;100.00
49055;BME280;35405;52.344;14.530;2023-03-07T08:30:57;98595.31;;;1.48;100.00
49055;BME280;35405;52.344;14.530;2023-03-07T08:33:28;98586.91;;;1.60;100.00
49055;BME280;35405;52.344;14.530;2023-03-07T08:39:12;98588.16;;;1.92;100.00
49055;BME280;35405;52.344;14.530;2023-03-07T08:48:25;98584.19;;;2.32;100.00
49055;BME280;35405;52.344;14.530;2023-03-07T08:53:41;98597.63;;;2.08;100.00
49055;BME280;35405;52.344;14.530;2023-03-07T08:56:24;98580.56;;;2.42;100.00
49055;BME280;35405;52.344;14.530;2023-03-07T08:58:58;98576.13;;;2.51;100.00
49055;BME280;35405;52.344;14.530;2023-03-07T09:01:27;98589.09;;;2.63;100.00
49055;BME280;35405;52.344;14.530;2023-03-07T09:03:52;98582.50;;;2.55;100.00
